createdAt,value
2023-02-15T00:01:33.947Z,98655.81
2023-02-15T00:04:02.383Z,98645.56
2023-02-15T00:06:30.675Z,98656.59
2023-02-15T00:08:59.508Z,98665.91
2023-02-15T00:11:28.142Z,98646.91
2023-02-15T00:13:55.762Z,98651.53
2023-02-15T00:16:24.880Z,98641.09
2023-02-15T00:18:52.905Z,98646.53
2023-02-15T00:21:20.571Z,98639.19
2023-02-15T00:23:48.698Z,98642.09
2023-02-15T00:26:16.397Z,98639.34
2023-02-15T00:28:44.128Z,98639.59
2023-02-15T00:31:13.670Z,98633.38
2023-02-15T00:33:42.628Z,98637.72
2023-02-15T00:36:11.635Z,98638.25
2023-02-15T00:38:39.885Z,98627.91
2023-02-15T00:41:09.711Z,98632.09
2023-02-15T00:43:37.989Z,98624.09
2023-02-15T00:46:07.579Z,98628.06
2023-02-15T00:48:35.731Z,98622.06
2023-02-15T00:51:04.964Z,98620.91
2023-02-15T00:53:32.796Z,98619.59
2023-02-15T00:56:00.993Z,98621.72
2023-02-15T00:58:28.768Z,98623.09
2023-02-15T01:01:04.697Z,98626.03
2023-02-15T01:03:32.864Z,98620.31
2023-02-15T01:06:01.383Z,98631.25
2023-02-15T01:08:31.099Z,98630.16
2023-02-15T01:11:04.680Z,98634.38
2023-02-15T01:13:32.648Z,98630.81
2023-02-15T01:16:00.954Z,98626.25
2023-02-15T01:18:30.303Z,98624.97
2023-02-15T01:20:58.372Z,98631.31
2023-02-15T01:23:26.012Z,98630.22
2023-02-15T01:25:55.096Z,98625.31
2023-02-15T01:28:23.018Z,98625.06
2023-02-15T01:30:50.692Z,98628.66
2023-02-15T01:33:18.386Z,98637.03
2023-02-15T01:35:46.437Z,98627.72
2023-02-15T01:38:14.786Z,98631.34
2023-02-15T01:40:42.804Z,98633.00
2023-02-15T01:43:13.166Z,98638.22
2023-02-15T01:45:41.417Z,98633.41
2023-02-15T01:48:20.469Z,98626.38
2023-02-15T01:50:54.035Z,98622.38
2023-02-15T01:53:28.346Z,98624.84
2023-02-15T01:56:00.638Z,98630.31
2023-02-15T01:58:31.188Z,98623.75
2023-02-15T02:01:01.804Z,98624.66
2023-02-15T02:03:43.344Z,98635.53
2023-02-15T02:06:13.300Z,98614.16
2023-02-15T02:08:42.287Z,98623.00
2023-02-15T02:11:11.766Z,98617.41
2023-02-15T02:13:43.736Z,98613.78
2023-02-15T02:16:20.664Z,98602.59
2023-02-15T02:19:22.110Z,98611.81
2023-02-15T02:22:40.502Z,98600.44
2023-02-15T02:25:37.501Z,98600.84
2023-02-15T02:28:32.495Z,98594.22
2023-02-15T02:31:32.299Z,98595.13
2023-02-15T02:34:12.602Z,98593.13
2023-02-15T02:36:49.163Z,98593.16
2023-02-15T02:39:29.226Z,98593.88
2023-02-15T02:42:08.353Z,98599.25
2023-02-15T02:44:43.409Z,98594.22
2023-02-15T02:47:18.246Z,98594.41
2023-02-15T02:49:47.490Z,98593.59
2023-02-15T02:52:39.939Z,98599.97
2023-02-15T02:55:13.982Z,98600.25
2023-02-15T02:57:51.414Z,98591.47
2023-02-15T03:00:21.632Z,98600.16
2023-02-15T03:02:56.355Z,98601.75
2023-02-15T03:05:30.314Z,98596.78
2023-02-15T03:08:00.356Z,98589.47
2023-02-15T03:10:29.466Z,98594.88
2023-02-15T03:12:57.625Z,98595.53
2023-02-15T03:15:30.591Z,98591.34
2023-02-15T03:18:04.013Z,98581.63
2023-02-15T03:20:37.648Z,98597.16
2023-02-15T03:23:12.327Z,98596.00
2023-02-15T03:25:43.917Z,98590.31
2023-02-15T03:28:17.768Z,98595.22
2023-02-15T03:30:52.955Z,98597.72
2023-02-15T03:33:24.608Z,98589.00
2023-02-15T03:36:03.743Z,98591.84
2023-02-15T03:38:41.969Z,98588.94
2023-02-15T03:41:18.611Z,98588.06
2023-02-15T03:43:54.338Z,98591.03
2023-02-15T03:46:29.406Z,98591.50
2023-02-15T03:49:03.780Z,98597.28
2023-02-15T03:51:38.303Z,98599.53
2023-02-15T03:54:10.502Z,98604.25
2023-02-15T03:56:41.782Z,98603.75
2023-02-15T03:59:09.633Z,98597.69
2023-02-15T04:01:41.707Z,98597.41
2023-02-15T04:04:17.896Z,98595.06
2023-02-15T04:06:47.681Z,98607.50
2023-02-15T04:09:15.525Z,98602.78
2023-02-15T04:11:43.185Z,98596.03
2023-02-15T04:14:10.789Z,98602.50
2023-02-15T04:16:38.407Z,98598.78
2023-02-15T04:19:06.022Z,98598.97
2023-02-15T04:21:33.659Z,98601.28
2023-02-15T04:24:02.755Z,98601.97
2023-02-15T04:26:30.458Z,98608.25
2023-02-15T04:28:58.127Z,98610.13
2023-02-15T04:31:25.760Z,98603.88
2023-02-15T04:33:53.561Z,98604.56
2023-02-15T04:36:21.332Z,98610.06
2023-02-15T04:38:49.260Z,98614.13
2023-02-15T04:41:24.650Z,98605.81
2023-02-15T04:43:52.379Z,98605.31
2023-02-15T04:46:20.386Z,98602.47
2023-02-15T04:48:48.085Z,98600.72
2023-02-15T04:51:15.675Z,98598.66
2023-02-15T04:53:43.279Z,98601.88
2023-02-15T04:56:10.936Z,98604.84
2023-02-15T04:58:40.066Z,98599.25
2023-02-15T05:01:08.020Z,98602.38
2023-02-15T05:03:36.490Z,98604.16
2023-02-15T05:06:05.092Z,98610.72
2023-02-15T05:08:32.766Z,98609.28
2023-02-15T05:11:00.345Z,98609.16
2023-02-15T05:13:27.980Z,98604.47
2023-02-15T05:15:57.024Z,98595.25
2023-02-15T05:18:24.837Z,98596.25
2023-02-15T05:20:52.586Z,98605.25
2023-02-15T05:23:20.291Z,98597.69
2023-02-15T05:25:48.605Z,98595.34
2023-02-15T05:28:16.449Z,98599.94
2023-02-15T05:30:44.349Z,98600.44
2023-02-15T05:33:13.468Z,98601.34
2023-02-15T05:35:41.246Z,98600.25
2023-02-15T05:38:08.969Z,98598.88
2023-02-15T05:40:36.592Z,98609.75
2023-02-15T05:43:04.424Z,98614.06
2023-02-15T05:45:32.079Z,98609.94
2023-02-15T05:47:59.919Z,98606.59
2023-02-15T05:50:29.044Z,98609.84
2023-02-15T05:52:56.678Z,98611.03
2023-02-15T05:55:24.414Z,98608.66
2023-02-15T05:57:52.159Z,98615.25
2023-02-15T06:00:20.454Z,98612.91
2023-02-15T06:02:48.250Z,98610.06
2023-02-15T06:05:16.083Z,98614.06
2023-02-15T06:07:46.171Z,98614.66
2023-02-15T06:10:13.993Z,98617.69
2023-02-15T06:12:41.693Z,98626.72
2023-02-15T06:15:09.989Z,98624.25
2023-02-15T06:17:37.625Z,98628.28
2023-02-15T06:20:06.513Z,98626.91
2023-02-15T06:22:34.160Z,98632.41
2023-02-15T06:25:03.403Z,98625.81
2023-02-15T06:27:31.142Z,98631.81
2023-02-15T06:29:58.942Z,98630.34
2023-02-15T06:32:26.675Z,98628.59
2023-02-15T06:34:54.394Z,98630.63
2023-02-15T06:37:22.054Z,98632.19
2023-02-15T06:39:50.296Z,98643.25
2023-02-15T06:42:19.296Z,98650.53
2023-02-15T06:44:46.947Z,98648.47
2023-02-15T06:47:14.879Z,98656.28
2023-02-15T06:49:42.603Z,98654.44
2023-02-15T06:54:55.536Z,98655.41
2023-02-15T06:57:24.856Z,98658.94
2023-02-15T06:59:52.564Z,98663.53
2023-02-15T07:02:20.330Z,98659.13
2023-02-15T07:04:51.340Z,98652.47
2023-02-15T07:07:19.356Z,98656.88
2023-02-15T07:09:47.241Z,98661.78
2023-02-15T07:12:14.994Z,98660.69
2023-02-15T07:14:44.257Z,98651.59
2023-02-15T07:17:32.944Z,98652.84
2023-02-15T07:19:59.411Z,98651.84
2023-02-15T07:22:27.273Z,98651.16
2023-02-15T07:24:55.099Z,98650.66
2023-02-15T07:27:22.812Z,98647.22
2023-02-15T07:30:01.297Z,98646.69
2023-02-15T07:32:32.401Z,98637.63
2023-02-15T07:35:02.697Z,98630.72
2023-02-15T07:37:32.721Z,98632.81
2023-02-15T07:40:01.343Z,98635.88
2023-02-15T07:42:35.411Z,98639.09
2023-02-15T07:45:05.526Z,98641.78
2023-02-15T07:47:33.755Z,98635.00
2023-02-15T07:50:01.975Z,98641.09
2023-02-15T07:52:30.015Z,98640.81
2023-02-15T07:55:00.657Z,98641.94
2023-02-15T07:57:34.295Z,98636.16
2023-02-15T08:00:04.283Z,98637.09
2023-02-15T08:02:33.875Z,98625.50
2023-02-15T08:05:02.476Z,98634.66
2023-02-15T08:07:33.267Z,98632.94
2023-02-15T08:10:00.868Z,98603.41
2023-02-15T08:12:29.370Z,98558.97
2023-02-15T08:14:57.247Z,98564.78
2023-02-15T08:17:28.664Z,98591.00
2023-02-15T08:19:57.875Z,98591.34
2023-02-15T08:22:25.870Z,98594.16
2023-02-15T08:24:55.395Z,98598.88
2023-02-15T08:27:23.224Z,98594.47
2023-02-15T08:29:53.794Z,98594.44
2023-02-15T08:32:22.967Z,98583.19
2023-02-15T08:34:52.362Z,98586.75
2023-02-15T08:37:21.292Z,98588.63
2023-02-15T08:39:48.880Z,98577.91
2023-02-15T08:44:57.078Z,98580.53
2023-02-15T08:47:28.171Z,98572.44
2023-02-15T08:49:56.311Z,98579.81
2023-02-15T09:24:51.419Z,98552.56
2023-02-15T09:27:22.819Z,98547.25
2023-02-15T09:30:00.124Z,98551.16
2023-02-15T09:32:31.002Z,98545.19
2023-02-15T09:35:00.374Z,98550.38
2023-02-15T09:37:31.577Z,98546.38
2023-02-15T09:40:03.492Z,98554.44
2023-02-15T09:43:20.361Z,98548.78
2023-02-15T09:46:18.325Z,98552.22
2023-02-15T09:48:56.210Z,98547.19
2023-02-15T09:52:08.846Z,98545.72
2023-02-15T09:54:54.714Z,98547.50
2023-02-15T09:57:46.258Z,98540.78
2023-02-15T10:00:29.572Z,98540.09
2023-02-15T10:03:25.181Z,98541.16
2023-02-15T10:11:43.730Z,98538.00
2023-02-15T10:14:45.053Z,98552.59
2023-02-15T10:17:28.958Z,98535.88
2023-02-15T10:20:14.390Z,98537.75
2023-02-15T10:23:01.585Z,98536.38
2023-02-15T10:25:44.571Z,98537.44
2023-02-15T10:28:18.890Z,98536.41
2023-02-15T10:30:51.782Z,98536.03
2023-02-15T10:41:38.055Z,98526.66
2023-02-15T10:44:34.489Z,98526.75
2023-02-15T10:55:01.562Z,98528.50
2023-02-15T10:57:49.716Z,98512.59
2023-02-15T11:34:22.831Z,98473.41
2023-02-15T11:36:56.628Z,98469.53
2023-02-15T11:39:30.897Z,98463.75
2023-02-15T11:44:40.772Z,98465.78
2023-02-15T11:47:14.812Z,98458.03
2023-02-15T11:49:47.293Z,98453.41
2023-02-15T11:52:20.213Z,98455.31
2023-02-15T11:54:52.364Z,98451.69
2023-02-15T12:16:23.811Z,98433.31
2023-02-15T12:18:55.439Z,98431.75
2023-02-15T12:21:30.092Z,98428.31
2023-02-15T12:24:04.164Z,98423.63
2023-02-15T12:26:36.605Z,98424.06
2023-02-15T12:29:19.024Z,98418.66
2023-02-15T12:31:54.577Z,98422.88
2023-02-15T12:34:31.071Z,98427.91
2023-02-15T12:37:09.882Z,98418.66
2023-02-15T12:39:38.106Z,98415.25
2023-02-15T12:45:49.838Z,98414.03
2023-02-15T12:54:43.437Z,98404.69
2023-02-15T13:00:11.546Z,98398.16
2023-02-15T13:08:22.273Z,98399.22
2023-02-15T13:11:00.867Z,98395.03
2023-02-15T13:18:46.724Z,98402.34
2023-02-15T13:21:22.937Z,98400.84
2023-02-15T13:23:57.504Z,98401.31
2023-02-15T13:26:31.722Z,98394.13
2023-02-15T13:29:15.949Z,98387.78
2023-02-15T13:31:45.554Z,98379.25
2023-02-15T13:34:22.197Z,98377.66
2023-02-15T13:37:02.456Z,98381.59
2023-02-15T13:39:45.823Z,98378.50
2023-02-15T13:42:28.731Z,98366.53
2023-02-15T13:45:21.374Z,98378.44
2023-02-15T13:48:01.015Z,98368.16
2023-02-15T13:50:52.612Z,98368.75
2023-02-15T13:53:43.313Z,98364.06
2023-02-15T13:56:22.937Z,98358.44
2023-02-15T13:59:17.766Z,98351.50
2023-02-15T14:01:55.716Z,98345.34
2023-02-15T14:05:01.145Z,98350.91
2023-02-15T14:07:54.410Z,98349.78
2023-02-15T14:10:40.662Z,98352.31
2023-02-15T14:13:59.775Z,98355.47
2023-02-15T14:16:40.533Z,98352.16
2023-02-15T14:19:22.713Z,98349.59
2023-02-15T14:22:07.059Z,98351.16
2023-02-15T14:27:28.123Z,98347.16
2023-02-15T14:30:00.781Z,98342.66
2023-02-15T14:32:38.411Z,98349.38
2023-02-15T14:35:15.053Z,98343.09
2023-02-15T14:37:51.928Z,98342.31
2023-02-15T14:40:38.050Z,98346.84
2023-02-15T14:43:19.219Z,98345.19
2023-02-15T14:45:53.782Z,98345.06
2023-02-15T14:48:30.006Z,98353.81
2023-02-15T14:50:58.824Z,98357.78
2023-02-15T14:53:38.536Z,98357.19
2023-02-15T14:56:22.179Z,98362.84
2023-02-15T14:59:17.072Z,98355.44
2023-02-15T15:01:58.145Z,98355.78
2023-02-15T15:04:36.435Z,98358.84
2023-02-15T15:07:21.602Z,98355.31
2023-02-15T15:10:07.625Z,98354.66
2023-02-15T15:20:49.037Z,98341.25
2023-02-15T15:23:44.696Z,98354.47
2023-02-15T15:29:03.233Z,98343.00
2023-02-15T15:31:52.449Z,98346.97
2023-02-15T15:34:55.717Z,98346.66
2023-02-15T15:37:57.019Z,98349.19
2023-02-15T15:41:01.827Z,98342.53
2023-02-15T15:43:57.538Z,98343.94
2023-02-15T15:47:00.430Z,98344.41
2023-02-15T15:49:34.058Z,98346.19
2023-02-15T15:52:10.988Z,98354.19
2023-02-15T15:54:42.670Z,98352.28
2023-02-15T15:57:25.545Z,98353.78
2023-02-15T15:59:58.662Z,98359.78
2023-02-15T16:02:27.715Z,98364.81
2023-02-15T16:04:56.041Z,98359.28
2023-02-15T16:07:28.386Z,98351.31
2023-02-15T16:10:00.443Z,98356.00
2023-02-15T16:12:35.628Z,98362.03
2023-02-15T16:17:48.486Z,98364.56
2023-02-15T16:20:21.054Z,98367.44
2023-02-15T16:23:00.296Z,98370.72
2023-02-15T16:25:40.376Z,98366.16
2023-02-15T16:28:18.558Z,98364.84
2023-02-15T16:31:11.784Z,98362.97
2023-02-15T16:33:47.275Z,98363.69
2023-02-15T16:36:22.845Z,98366.00
2023-02-15T16:41:37.527Z,98375.13
2023-02-15T16:44:26.866Z,98379.66
2023-02-15T16:46:56.696Z,98389.25
2023-02-15T16:49:37.438Z,98388.94
2023-02-15T16:52:26.707Z,98392.69
2023-02-15T16:55:02.979Z,98381.16
2023-02-15T16:57:45.508Z,98384.00
2023-02-15T17:00:22.803Z,98383.22
2023-02-15T17:03:02.865Z,98384.22
2023-02-15T17:05:34.891Z,98390.00
2023-02-15T17:08:18.174Z,98393.47
2023-02-15T17:11:03.216Z,98392.72
2023-02-15T17:13:32.949Z,98389.56
2023-02-15T17:16:35.017Z,98396.16
2023-02-15T17:19:28.442Z,98405.91
2023-02-15T17:21:59.165Z,98403.63
2023-02-15T17:24:41.540Z,98405.03
2023-02-15T17:27:18.375Z,98413.28
2023-02-15T17:29:53.067Z,98415.94
2023-02-15T17:32:28.032Z,98428.81
2023-02-15T17:35:06.826Z,98426.72
2023-02-15T17:37:46.073Z,98425.31
2023-02-15T17:40:25.868Z,98426.31
2023-02-15T17:42:54.512Z,98427.22
2023-02-15T17:45:25.799Z,98432.75
2023-02-15T17:47:58.202Z,98429.88
2023-02-15T17:50:28.018Z,98435.78
2023-02-15T17:52:58.443Z,98436.84
2023-02-15T17:55:26.618Z,98438.78
2023-02-15T17:57:54.689Z,98440.88
2023-02-15T18:00:22.970Z,98431.22
2023-02-15T18:02:51.790Z,98441.03
2023-02-15T18:05:22.955Z,98433.94
2023-02-15T18:07:53.312Z,98440.50
2023-02-15T18:10:22.145Z,98442.56
2023-02-15T18:12:50.906Z,98445.69
2023-02-15T18:15:19.086Z,98436.47
2023-02-15T18:17:50.899Z,98439.22
2023-02-15T18:20:28.607Z,98436.41
2023-02-15T18:22:58.500Z,98438.94
2023-02-15T18:25:31.871Z,98427.44
2023-02-15T18:28:03.258Z,98431.00
2023-02-15T18:30:41.268Z,98428.34
2023-02-15T18:33:32.052Z,98430.63
2023-02-15T18:36:32.460Z,98434.00
2023-02-15T18:39:08.789Z,98434.19
2023-02-15T18:41:44.846Z,98439.22
2023-02-15T18:44:17.639Z,98438.69
2023-02-15T18:46:49.660Z,98439.38
2023-02-15T18:49:18.228Z,98435.91
2023-02-15T18:52:26.999Z,98441.88
2023-02-15T18:55:02.861Z,98447.50
2023-02-15T18:57:36.139Z,98447.13
2023-02-15T19:00:26.793Z,98441.13
2023-02-15T19:08:46.073Z,98447.59
2023-02-15T19:11:17.725Z,98444.16
2023-02-15T19:13:46.591Z,98445.38
2023-02-15T19:16:28.789Z,98438.03
2023-02-15T19:18:57.076Z,98450.72
2023-02-15T19:21:34.336Z,98438.22
2023-02-15T19:24:24.938Z,98440.88
2023-02-15T19:26:53.596Z,98438.53
2023-02-15T19:29:29.849Z,98431.84
2023-02-15T19:31:58.158Z,98433.59
2023-02-15T19:34:28.845Z,98437.41
2023-02-15T19:36:57.247Z,98440.22
2023-02-15T19:39:30.441Z,98434.66
2023-02-15T19:41:59.355Z,98437.78
2023-02-15T19:44:27.589Z,98450.22
2023-02-15T19:46:55.646Z,98444.97
2023-02-15T19:49:23.587Z,98450.72
2023-02-15T19:51:51.755Z,98455.88
2023-02-15T19:54:31.761Z,98458.25
2023-02-15T19:57:00.008Z,98455.47
2023-02-15T19:59:29.661Z,98451.22
2023-02-15T20:01:58.115Z,98445.47
2023-02-15T20:04:26.640Z,98445.19
2023-02-15T20:06:57.714Z,98442.09
2023-02-15T20:10:07.592Z,98452.19
2023-02-15T20:12:36.851Z,98448.06
2023-02-15T20:15:18.954Z,98454.66
2023-02-15T20:17:46.974Z,98449.19
2023-02-15T20:20:16.287Z,98454.88
2023-02-15T20:22:47.096Z,98452.81
2023-02-15T20:25:20.405Z,98446.13
2023-02-15T20:27:50.042Z,98441.94
2023-02-15T20:30:20.730Z,98443.31
2023-02-15T20:32:49.602Z,98444.06
2023-02-15T20:35:19.913Z,98447.03
2023-02-15T20:37:51.072Z,98446.72
2023-02-15T20:40:21.781Z,98452.34
2023-02-15T20:42:54.897Z,98454.44
2023-02-15T20:45:26.235Z,98455.16
2023-02-15T20:47:54.520Z,98453.44
2023-02-15T20:50:24.880Z,98443.25
2023-02-15T20:52:55.867Z,98448.75
2023-02-15T20:55:25.740Z,98462.16
2023-02-15T20:57:56.325Z,98452.63
2023-02-15T21:00:27.873Z,98455.91
2023-02-15T21:02:59.195Z,98460.25
2023-02-15T21:05:29.946Z,98460.09
2023-02-15T21:07:59.229Z,98460.31
2023-02-15T21:10:30.113Z,98454.97
2023-02-15T21:13:00.885Z,98462.16
2023-02-15T21:15:32.154Z,98464.09
2023-02-15T21:18:02.480Z,98452.91
2023-02-15T21:20:52.505Z,98451.53
2023-02-15T21:23:24.351Z,98450.88
2023-02-15T21:25:54.169Z,98448.09
2023-02-15T21:28:27.737Z,98443.50
2023-02-15T21:30:57.971Z,98446.66
2023-02-15T21:33:26.860Z,98442.91
2023-02-15T21:35:57.708Z,98441.81
2023-02-15T21:38:29.695Z,98448.88
2023-02-15T21:40:57.428Z,98442.78
2023-02-15T21:43:26.634Z,98449.13
2023-02-15T21:45:54.335Z,98448.19
2023-02-15T21:48:22.242Z,98452.88
2023-02-15T21:50:50.803Z,98452.59
2023-02-15T21:53:23.333Z,98454.13
2023-02-15T21:55:54.460Z,98451.88
2023-02-15T21:58:25.343Z,98463.31
2023-02-15T22:00:55.540Z,98457.72
2023-02-15T22:03:24.807Z,98457.59
2023-02-15T22:05:52.566Z,98453.88
2023-02-15T22:08:20.339Z,98454.47
2023-02-15T22:10:48.709Z,98462.88
2023-02-15T22:13:22.729Z,98465.69
2023-02-15T22:15:50.592Z,98468.41
2023-02-15T22:18:22.963Z,98469.19
2023-02-15T22:20:52.174Z,98470.13
2023-02-15T22:23:20.492Z,98468.91
2023-02-15T22:25:52.397Z,98460.59
2023-02-15T22:28:26.466Z,98461.53
2023-02-15T22:30:55.186Z,98460.72
2023-02-15T22:33:27.618Z,98452.47
2023-02-15T22:35:55.792Z,98460.44
2023-02-15T22:38:23.508Z,98456.97
2023-02-15T22:40:55.565Z,98457.59
2023-02-15T22:43:34.022Z,98452.63
2023-02-15T22:46:04.414Z,98453.25
2023-02-15T22:48:34.811Z,98452.78
2023-02-15T22:51:03.563Z,98461.38
2023-02-15T22:53:32.996Z,98458.41
2023-02-15T22:56:07.313Z,98453.91
2023-02-15T22:58:35.282Z,98455.13
2023-02-15T23:01:05.493Z,98449.81
2023-02-15T23:03:34.936Z,98447.81
2023-02-15T23:06:02.577Z,98447.16
2023-02-15T23:08:30.289Z,98455.00
2023-02-15T23:10:58.044Z,98456.84
2023-02-15T23:13:30.090Z,98459.03
2023-02-15T23:16:00.412Z,98473.09
2023-02-15T23:18:31.939Z,98461.72
2023-02-15T23:21:04.473Z,98460.78
2023-02-15T23:23:37.850Z,98465.63
2023-02-15T23:26:15.407Z,98471.09
2023-02-15T23:28:43.809Z,98473.09
2023-02-15T23:31:18.440Z,98473.72
2023-02-15T23:33:47.213Z,98472.78
2023-02-15T23:36:29.495Z,98478.25
2023-02-15T23:38:59.648Z,98471.50
2023-02-15T23:41:32.326Z,98471.69
2023-02-15T23:44:03.821Z,98480.13
2023-02-15T23:46:40.910Z,98479.50
2023-02-15T23:49:11.795Z,98476.69
2023-02-15T23:51:43.166Z,98478.41
2023-02-15T23:54:11.854Z,98477.91
2023-02-15T23:56:42.185Z,98477.44
2023-02-15T23:59:16.747Z,98479.88
